Terminal Aerodrome Forecast
Issued by NWS Charleston, WV

Current Version | Previous Version | Graphics & Text | Print | Product List | Glossary Off
Versions: 1 2 3 4 5 6 7 8 9 10 11 12 13 14 15 16 17 18 19 20 21 22 23 24 25

000
FTUS41 KRLX 061100
TAFEKN
TAF
KEKN 061132Z 0612/0712 00000KT 6SM BR SCT005
     FM061400 00000KT P6SM FEW020
     FM062300 00000KT P6SM SCT200=

USA.gov is the U.S. government's official web portal to all federal, state and local government web resources and services.